Time;durP1;ratioP1;P1;durP2;ratioP2;P2;SDS_P1;SDS_P2;PMS_P1;PMS_P2;Temp;Humidity;BMP_temperature;BMP_pressure;BME280_temperature;BME280_humidity;BME280_pressure;Samples;Min_cycle;Max_cycle;Signal;HPM_P1;HPM_P2
2024/04/05 00:01:31;;;;;;;6.80;1.77;;;;;;;10.37;100.00;98281.47;5069590;28;20060;-63
2024/04/05 00:03:58;;;;;;;6.03;2.28;;;;;;;10.39;100.00;98283.81;5070949;28;20066;-63
2024/04/05 00:06:25;;;;;;;6.57;1.58;;;;;;;10.39;100.00;98279.06;5070704;28;20133;-63
2024/04/05 00:08:51;;;;;;;6.40;1.20;;;;;;;10.42;100.00;98277.47;5070140;28;20055;-63
2024/04/05 00:11:17;;;;;;;6.43;1.60;;;;;;;10.43;100.00;98268.00;5065397;28;20544;-63
2024/04/05 00:13:43;;;;;;;9.13;1.92;;;;;;;10.45;100.00;98275.88;5067912;28;20048;-64
2024/04/05 00:16:10;;;;;;;7.35;1.48;;;;;;;10.45;100.00;98273.91;5067174;28;20051;-63
2024/04/05 00:18:36;;;;;;;9.93;1.70;;;;;;;10.46;100.00;98263.63;5051346;28;20059;-63
2024/04/05 00:21:04;;;;;;;3.90;1.48;;;;;;;10.47;100.00;98279.03;5069831;28;20480;-63
2024/04/05 00:23:31;;;;;;;5.15;2.20;;;;;;;10.49;100.00;98274.66;5062011;28;20051;-64
2024/04/05 00:25:59;;;;;;;5.03;1.02;;;;;;;10.50;100.00;98267.16;5068960;28;20502;-63
2024/04/05 00:28:27;;;;;;;3.45;0.70;;;;;;;10.51;100.00;98263.19;5070447;28;20044;-63
2024/04/05 00:30:53;;;;;;;3.60;1.50;;;;;;;10.53;100.00;98267.13;5065365;28;20048;-63
2024/04/05 00:33:20;;;;;;;4.13;1.48;;;;;;;10.55;100.00;98263.94;5070045;28;20048;-63
2024/04/05 00:35:56;;;;;;;2.05;0.80;;;;;;;10.56;100.00;98246.97;5069546;28;20841;-63
2024/04/05 00:38:24;;;;;;;3.25;0.90;;;;;;;10.55;100.00;98239.84;5068758;28;20056;-63
2024/04/05 00:40:53;;;;;;;1.05;0.55;;;;;;;10.54;100.00;98243.03;5071126;28;20495;-63
2024/04/05 00:43:20;;;;;;;4.00;1.05;;;;;;;10.53;100.00;98239.47;5067779;28;20044;-63
2024/04/05 00:45:47;;;;;;;3.75;1.13;;;;;;;10.54;100.00;98234.72;5069880;28;20494;-63
2024/04/05 00:48:21;;;;;;;2.10;0.60;;;;;;;10.55;100.00;98236.28;5049688;28;20053;-62
2024/04/05 00:50:50;;;;;;;4.80;1.40;;;;;;;10.55;100.00;98228.00;5056217;28;20421;-63
2024/04/05 00:53:20;;;;;;;5.38;1.42;;;;;;;10.55;100.00;98225.22;5066967;28;20088;-62
2024/04/05 00:55:48;;;;;;;3.38;1.65;;;;;;;10.56;100.00;98226.81;5069806;28;20059;-62
2024/04/05 00:58:15;;;;;;;3.38;0.93;;;;;;;10.57;100.00;98233.91;5069379;28;20055;-62
2024/04/05 01:00:41;;;;;;;4.93;1.92;;;;;;;10.57;100.00;98240.22;5068740;28;20428;-62
2024/04/05 01:03:07;;;;;;;2.75;0.90;;;;;;;10.58;100.00;98239.03;5069556;28;20055;-63
2024/04/05 01:05:35;;;;;;;3.75;1.80;;;;;;;10.60;100.00;98233.09;5068850;28;20040;-64
2024/04/05 01:08:02;;;;;;;4.45;1.20;;;;;;;10.61;100.00;98234.69;5054773;28;20048;-63
2024/04/05 01:10:28;;;;;;;2.10;0.77;;;;;;;10.63;100.00;98232.28;5064582;28;20399;-63
2024/04/05 01:13:02;;;;;;;1.40;0.70;;;;;;;10.63;100.00;98232.28;5060111;28;20043;-63
2024/04/05 01:15:29;;;;;;;2.22;0.85;;;;;;;10.62;100.00;98228.72;5057929;28;20051;-63
2024/04/05 01:17:58;;;;;;;5.45;2.75;;;;;;;10.64;100.00;98212.53;5069178;28;20056;-63
2024/04/05 01:20:26;;;;;;;4.60;0.70;;;;;;;10.64;100.00;98212.53;5067129;28;20040;-63
2024/04/05 01:22:53;;;;;;;4.78;2.45;;;;;;;10.66;100.00;98214.88;5054187;28;20052;-63
2024/04/05 01:25:23;;;;;;;5.38;0.82;;;;;;;10.67;100.00;98213.69;5059807;28;20528;-63
2024/04/05 01:27:49;;;;;;;5.88;1.00;;;;;;;10.68;100.00;98218.81;5051158;28;20044;-63
2024/04/05 01:30:15;;;;;;;3.60;0.80;;;;;;;10.70;100.00;98221.16;5062062;28;20055;-64
2024/04/05 01:32:53;;;;;;;2.58;0.88;;;;;;;10.70;100.00;98216.41;5067639;28;20048;-63
2024/04/05 01:35:20;;;;;;;5.03;0.90;;;;;;;10.70;100.00;98216.41;5068220;28;20052;-63
2024/04/05 01:37:46;;;;;;;5.35;0.63;;;;;;;10.71;100.00;98219.97;5064077;28;20417;-63
2024/04/05 01:40:13;;;;;;;4.10;1.08;;;;;;;10.72;100.00;98214.00;5063333;28;20505;-62
2024/04/05 01:42:39;;;;;;;3.90;0.68;;;;;;;10.74;100.00;98230.22;5056998;28;20062;-62
2024/04/05 01:45:06;;;;;;;5.55;1.85;;;;;;;10.74;100.00;98227.47;5061282;28;20059;-63
2024/04/05 01:47:32;;;;;;;3.35;0.95;;;;;;;10.75;100.00;98234.56;5068090;28;20044;-63
2024/04/05 01:49:58;;;;;;;4.78;1.02;;;;;;;10.76;100.00;98227.84;5057814;28;20783;-63
2024/04/05 01:52:25;;;;;;;5.93;1.20;;;;;;;10.76;100.00;98225.06;5061919;28;20044;-62
2024/04/05 01:54:52;;;;;;;6.70;2.03;;;;;;;10.78;100.00;98228.19;5067489;28;20040;-62
2024/04/05 01:57:18;;;;;;;4.78;1.15;;;;;;;10.78;100.00;98226.22;5068088;28;20059;-62
2024/04/05 01:59:55;;;;;;;11.25;1.70;;;;;;;10.78;100.00;98222.66;5066725;28;20051;-63
2024/04/05 02:02:24;;;;;;;5.82;1.50;;;;;;;10.79;100.00;98218.72;5065870;28;20052;-63
2024/04/05 02:04:54;;;;;;;7.63;1.80;;;;;;;10.78;100.00;98217.13;5068724;28;20052;-62
2024/04/05 02:07:24;;;;;;;13.80;2.72;;;;;;;10.77;100.00;98210.03;5056110;28;20048;-62
2024/04/05 02:09:51;;;;;;;21.30;3.35;;;;;;;10.75;100.00;98220.75;5056224;28;20067;-62
2024/04/05 02:12:18;;;;;;;10.10;2.25;;;;;;;10.74;100.00;98225.47;5066451;28;20521;-63
2024/04/05 02:14:45;;;;;;;13.80;3.00;;;;;;;10.72;100.00;98224.31;5066925;28;20063;-62
2024/04/05 02:17:11;;;;;;;16.85;3.33;;;;;;;10.69;100.00;98216.81;5067460;28;20044;-62
2024/04/05 02:19:38;;;;;;;11.60;2.67;;;;;;;10.64;100.00;98217.25;5057803;28;20461;-63
2024/04/05 02:22:05;;;;;;;14.68;3.65;;;;;;;10.61;100.00;98215.31;5059945;28;20838;-62
2024/04/05 02:24:32;;;;;;;10.68;3.17;;;;;;;10.61;100.00;98218.06;5068756;28;20059;-62
2024/04/05 02:26:59;;;;;;;12.88;2.70;;;;;;;10.61;100.00;98223.59;5067893;28;20155;-62
2024/04/05 02:29:27;;;;;;;16.20;3.83;;;;;;;10.63;100.00;98215.69;5067771;28;20052;-62
2024/04/05 02:31:53;;;;;;;12.07;2.65;;;;;;;10.64;100.00;98220.03;5057756;28;20091;-62
2024/04/05 02:34:20;;;;;;;14.98;3.20;;;;;;;10.65;100.00;98218.81;5068001;28;20048;-62
2024/04/05 02:36:49;;;;;;;16.40;4.03;;;;;;;10.67;100.00;98216.47;5068744;28;20055;-62
2024/04/05 02:39:15;;;;;;;16.27;4.22;;;;;;;10.67;100.00;98217.22;5067597;28;20048;-62
2024/04/05 02:41:44;;;;;;;14.63;2.38;;;;;;;10.68;100.00;98223.53;5068079;28;20051;-62
2024/04/05 02:44:11;;;;;;;5.60;2.63;;;;;;;10.67;100.00;98211.69;5066852;28;20413;-63
2024/04/05 02:46:37;;;;;;;10.73;2.53;;;;;;;10.68;100.00;98218.00;5068398;28;20048;-63
2024/04/05 02:49:03;;;;;;;17.10;3.72;;;;;;;10.69;100.00;98219.59;5067270;28;20056;-62
2024/04/05 02:51:30;;;;;;;18.20;2.75;;;;;;;10.68;100.00;98212.47;5051005;28;20413;-64
2024/04/05 02:53:56;;;;;;;15.50;2.95;;;;;;;10.66;100.00;98225.94;5063388;28;20044;-62
2024/04/05 02:56:22;;;;;;;14.35;3.45;;;;;;;10.66;100.00;98214.88;5061522;28;20044;-63
2024/04/05 02:58:48;;;;;;;22.63;3.80;;;;;;;10.65;100.00;98208.53;5066463;28;20052;-65
2024/04/05 03:01:15;;;;;;;16.30;3.08;;;;;;;10.65;100.00;98211.31;5156903;22;20045;-62
2024/04/05 03:03:41;;;;;;;16.33;3.22;;;;;;;10.66;100.00;98209.34;5064027;28;20041;-63
2024/04/05 03:06:07;;;;;;;16.70;3.65;;;;;;;10.65;100.00;98207.75;5034651;28;20056;-63
2024/04/05 03:08:35;;;;;;;22.27;3.55;;;;;;;10.61;100.00;98207.00;5066893;28;21726;-62
2024/04/05 03:11:01;;;;;;;23.58;4.20;;;;;;;10.57;100.00;98200.69;5064735;28;20040;-62
2024/04/05 03:13:27;;;;;;;14.35;2.80;;;;;;;10.53;100.00;98205.47;5068232;28;20045;-62
2024/04/05 03:15:54;;;;;;;24.17;3.35;;;;;;;10.47;100.00;98196.03;5065801;28;20047;-62
2024/04/05 03:18:20;;;;;;;19.55;5.10;;;;;;;10.44;100.00;98188.53;5067629;28;20426;-62
2024/04/05 03:20:48;;;;;;;25.10;3.63;;;;;;;10.43;100.00;98203.59;5068637;28;20053;-62
2024/04/05 03:23:14;;;;;;;14.82;3.75;;;;;;;10.40;100.00;98205.94;5066186;28;20048;-62
2024/04/05 03:25:40;;;;;;;12.93;2.70;;;;;;;10.38;100.00;98199.25;5067220;28;20100;-62
2024/04/05 03:28:07;;;;;;;18.33;3.38;;;;;;;10.34;100.00;98199.28;5068124;28;20066;-62
2024/04/05 03:30:35;;;;;;;17.23;3.60;;;;;;;10.31;100.00;98199.31;5068324;28;20056;-63
2024/04/05 03:33:01;;;;;;;17.08;4.07;;;;;;;10.26;100.00;98192.22;5067103;28;20049;-63
2024/04/05 03:35:27;;;;;;;12.15;3.17;;;;;;;10.23;100.00;98192.25;5067749;28;20047;-62
2024/04/05 03:37:54;;;;;;;21.52;3.92;;;;;;;10.20;100.00;98193.84;5067034;28;20382;-62
2024/04/05 03:40:21;;;;;;;21.63;3.28;;;;;;;10.19;100.00;98205.31;5067296;28;20045;-62
2024/04/05 03:42:48;;;;;;;21.38;4.28;;;;;;;10.16;100.00;98198.63;5067649;28;20516;-62
2024/04/05 03:45:15;;;;;;;24.55;5.07;;;;;;;10.16;100.00;98204.16;5068033;28;20052;-62
2024/04/05 03:47:42;;;;;;;26.25;4.10;;;;;;;10.15;100.00;98197.03;5061170;28;20041;-62
2024/04/05 03:50:08;;;;;;;29.13;4.90;;;;;;;10.12;100.00;98197.84;5064121;28;20048;-62
2024/04/05 03:52:35;;;;;;;21.95;3.97;;;;;;;10.11;100.00;98198.22;5067062;28;20041;-62
2024/04/05 03:55:04;;;;;;;25.63;3.70;;;;;;;10.09;100.00;98209.66;5065863;28;20040;-63
2024/04/05 03:57:31;;;;;;;17.58;4.25;;;;;;;10.09;100.00;98204.13;5067248;28;20067;-63
2024/04/05 03:59:59;;;;;;;23.60;5.88;;;;;;;10.09;100.00;98215.19;5067378;28;20055;-62
2024/04/05 04:02:25;;;;;;;20.42;4.07;;;;;;;10.10;100.00;98213.22;5067236;28;20060;-63
2024/04/05 04:04:51;;;;;;;31.10;4.55;;;;;;;10.12;100.00;98217.19;5066707;28;20668;-62
2024/04/05 04:07:18;;;;;;;26.80;5.95;;;;;;;10.14;100.00;98228.63;5067207;28;20060;-63
2024/04/05 04:09:46;;;;;;;16.08;4.97;;;;;;;10.18;100.00;98228.63;5063337;28;20048;-62
2024/04/05 04:12:15;;;;;;;32.22;4.72;;;;;;;10.22;100.00;98241.22;5068268;28;20048;-63
2024/04/05 04:14:41;;;;;;;17.90;4.97;;;;;;;10.25;100.00;98234.88;5066148;28;20054;-63
2024/04/05 04:17:08;;;;;;;21.10;3.95;;;;;;;10.27;100.00;98238.03;5048747;28;20048;-63
2024/04/05 04:19:34;;;;;;;25.38;6.20;;;;;;;10.32;100.00;98228.53;5066657;28;20052;-63
2024/04/05 04:22:01;;;;;;;17.70;4.65;;;;;;;10.35;100.00;98231.28;5050366;28;20060;-64
2024/04/05 04:24:27;;;;;;;21.90;4.63;;;;;;;10.36;100.00;98224.56;5066748;28;20405;-63
2024/04/05 04:26:54;;;;;;;32.42;5.00;;;;;;;10.40;100.00;98222.53;5062135;28;20051;-63
2024/04/05 04:29:20;;;;;;;28.42;4.50;;;;;;;10.41;100.00;98215.03;5067135;28;20553;-63
2024/04/05 04:31:47;;;;;;;17.60;3.97;;;;;;;10.42;100.00;98221.38;5066312;28;20052;-62
2024/04/05 04:34:13;;;;;;;26.08;4.65;;;;;;;10.42;100.00;98229.66;5065994;28;20056;-64
2024/04/05 04:36:39;;;;;;;17.08;4.28;;;;;;;10.43;100.00;98218.22;5066340;28;20056;-63
2024/04/05 04:39:08;;;;;;;23.13;4.35;;;;;;;10.45;100.00;98223.31;5067228;28;20122;-62
2024/04/05 04:41:35;;;;;;;27.27;7.28;;;;;;;10.46;100.00;98233.97;5066499;28;20064;-62
2024/04/05 04:44:02;;;;;;;17.95;4.57;;;;;;;10.47;100.00;98235.56;5066016;28;20052;-62
2024/04/05 04:46:29;;;;;;;19.73;4.07;;;;;;;10.48;100.00;98230.81;5067063;28;20048;-62
2024/04/05 04:48:57;;;;;;;19.55;3.78;;;;;;;10.50;100.00;98228.41;5057365;28;20040;-62
2024/04/05 04:51:24;;;;;;;19.55;4.53;;;;;;;10.50;100.00;98217.34;5065786;28;20045;-62
2024/04/05 04:53:50;;;;;;;17.85;3.72;;;;;;;10.50;100.00;98222.88;5064204;28;20048;-62
2024/04/05 04:56:16;;;;;;;16.15;4.38;;;;;;;10.52;100.00;98242.63;5066476;28;20142;-63
2024/04/05 04:58:44;;;;;;;27.65;4.72;;;;;;;10.50;100.00;98231.19;5065515;28;20290;-63
2024/04/05 05:01:10;;;;;;;23.45;4.05;;;;;;;10.48;100.00;98239.13;5064806;28;20055;-62
2024/04/05 05:03:36;;;;;;;27.95;5.88;;;;;;;10.47;100.00;98220.94;5065088;28;20043;-63
2024/04/05 05:06:03;;;;;;;19.65;5.40;;;;;;;10.46;100.00;98211.84;5063575;28;20056;-63
2024/04/05 05:08:30;;;;;;;26.02;3.80;;;;;;;10.43;100.00;98222.94;5065192;28;20059;-63
2024/04/05 05:10:56;;;;;;;25.73;4.63;;;;;;;10.42;100.00;98216.63;5060553;28;20045;-62
2024/04/05 05:13:23;;;;;;;17.38;3.30;;;;;;;10.42;100.00;98235.19;5066261;28;20052;-63
2024/04/05 05:15:49;;;;;;;21.45;4.05;;;;;;;10.40;100.00;98225.31;5065311;28;20041;-64
2024/04/05 05:18:15;;;;;;;19.73;4.55;;;;;;;10.43;100.00;98223.75;5065769;28;20047;-62
2024/04/05 05:20:47;;;;;;;22.23;4.20;;;;;;;10.44;100.00;98230.03;5039096;28;20505;-63
2024/04/05 05:23:14;;;;;;;19.90;5.05;;;;;;;10.46;100.00;98224.91;5056989;28;20048;-63
2024/04/05 05:25:43;;;;;;;29.92;5.45;;;;;;;10.48;100.00;98228.03;5065872;28;20049;-63
2024/04/05 05:28:10;;;;;;;29.20;4.10;;;;;;;10.49;100.00;98221.31;5065994;28;20041;-63
2024/04/05 05:30:37;;;;;;;14.88;4.88;;;;;;;10.52;100.00;98220.50;5061312;28;20431;-63
2024/04/05 05:33:04;;;;;;;25.10;4.97;;;;;;;10.50;100.00;98220.91;5066020;28;20052;-63
2024/04/05 05:35:30;;;;;;;32.90;5.95;;;;;;;10.49;100.00;98232.38;5065647;28;20505;-64
2024/04/05 05:38:00;;;;;;;18.85;4.35;;;;;;;10.48;100.00;98220.53;5066307;28;20498;-63
2024/04/05 05:40:27;;;;;;;21.40;4.00;;;;;;;10.47;100.00;98220.94;5065080;28;20048;-63
2024/04/05 05:42:53;;;;;;;23.27;5.60;;;;;;;10.44;100.00;98216.19;5065284;28;20052;-63
2024/04/05 05:45:23;;;;;;;18.88;4.53;;;;;;;10.41;100.00;98212.28;5065606;28;20080;-62
2024/04/05 05:47:53;;;;;;;22.63;4.47;;;;;;;10.40;100.00;98207.94;5048725;28;20059;-63
2024/04/05 05:50:24;;;;;;;19.23;4.05;;;;;;;10.40;100.00;98227.31;5064468;28;20052;-63
2024/04/05 05:52:51;;;;;;;17.98;3.83;;;;;;;10.40;100.00;98230.84;5041241;28;20064;-62
2024/04/05 05:55:18;;;;;;;26.10;4.30;;;;;;;10.40;100.00;98219.78;5062035;28;20055;-62
2024/04/05 05:57:44;;;;;;;22.02;5.20;;;;;;;10.41;100.00;98215.03;5049209;28;20041;-63
2024/04/05 06:00:11;;;;;;;25.88;7.43;;;;;;;10.42;100.00;98204.75;5063924;28;20060;-62
2024/04/05 06:02:38;;;;;;;22.75;5.00;;;;;;;10.44;100.00;98207.91;5064948;28;20063;-63
2024/04/05 06:05:06;;;;;;;19.10;5.07;;;;;;;10.46;100.00;98209.06;5064617;28;20044;-63
2024/04/05 06:07:33;;;;;;;15.52;3.70;;;;;;;10.46;100.00;98213.84;5063973;28;20060;-62
2024/04/05 06:10:01;;;;;;;30.05;5.35;;;;;;;10.45;100.00;98215.03;5056637;28;20037;-63
2024/04/05 06:12:29;;;;;;;21.80;5.38;;;;;;;10.43;100.00;98209.13;5057033;28;20048;-65
2024/04/05 06:14:56;;;;;;;22.60;4.22;;;;;;;10.40;100.00;98205.94;5061330;28;20055;-63
2024/04/05 06:17:26;;;;;;;29.63;4.35;;;;;;;10.39;100.00;98200.84;5064849;28;20377;-62
2024/04/05 06:19:56;;;;;;;28.23;5.53;;;;;;;10.37;100.00;98194.94;5053442;28;20044;-63
2024/04/05 06:22:26;;;;;;;25.23;5.88;;;;;;;10.36;100.00;98185.84;5063822;28;20045;-62
2024/04/05 06:24:52;;;;;;;28.17;5.40;;;;;;;10.34;100.00;98174.41;5052064;28;20040;-62
2024/04/05 06:27:19;;;;;;;36.67;6.22;;;;;;;10.31;100.00;98169.69;5056500;28;20053;-63
2024/04/05 06:29:50;;;;;;;23.27;4.75;;;;;;;10.29;100.00;98169.31;5056247;28;20060;-64
2024/04/05 06:32:17;;;;;;;16.77;3.58;;;;;;;10.28;100.00;98191.81;5064521;28;20490;-62
2024/04/05 06:34:44;;;;;;;23.25;4.32;;;;;;;10.32;100.00;98211.94;5065181;28;20043;-62
2024/04/05 06:37:14;;;;;;;24.02;3.50;;;;;;;10.36;100.00;98209.94;5055499;28;20084;-63
2024/04/05 06:39:41;;;;;;;20.55;3.97;;;;;;;10.42;100.00;98204.75;5055215;28;20155;-62
2024/04/05 06:42:08;;;;;;;23.88;3.70;;;;;;;10.50;100.00;98217.34;5056444;28;20048;-63
2024/04/05 06:44:35;;;;;;;20.40;3.97;;;;;;;10.55;100.00;98214.94;5064468;28;20055;-63
2024/04/05 06:47:05;;;;;;;23.10;3.97;;;;;;;10.61;100.00;98218.06;5055999;28;20043;-62
2024/04/05 06:49:32;;;;;;;19.83;3.38;;;;;;;10.67;100.00;98211.69;5049974;28;20055;-63
2024/04/05 06:52:01;;;;;;;20.02;4.03;;;;;;;10.73;100.00;98209.28;5045151;28;20051;-63
2024/04/05 06:54:28;;;;;;;24.23;5.85;;;;;;;10.79;100.00;98207.66;5041601;28;20068;-62
2024/04/05 06:56:54;;;;;;;22.45;5.47;;;;;;;10.83;100.00;98211.16;5048881;28;20045;-63
2024/04/05 06:59:20;;;;;;;17.92;3.65;;;;;;;10.87;100.00;98203.63;5045031;28;20061;-62
2024/04/05 07:01:46;;;;;;;24.05;4.70;;;;;;;10.90;100.00;98203.59;5059391;28;20067;-63
2024/04/05 07:04:13;;;;;;;25.20;5.93;;;;;;;10.95;100.00;98205.13;5060961;28;20056;-63
2024/04/05 07:06:39;;;;;;;24.48;4.32;;;;;;;11.01;100.00;98215.34;5057127;28;20036;-63
2024/04/05 07:09:08;;;;;;;29.30;5.55;;;;;;;11.08;100.00;98197.09;5048503;28;20458;-63
2024/04/05 07:11:37;;;;;;;29.67;5.72;;;;;;;11.15;100.00;98203.34;5063922;28;20048;-63
2024/04/05 07:14:04;;;;;;;29.23;5.32;;;;;;;11.24;100.00;98206.44;5064998;28;20063;-63
2024/04/05 07:16:30;;;;;;;26.20;4.93;;;;;;;11.31;100.00;98208.34;5056211;28;20498;-64
2024/04/05 07:18:59;;;;;;;26.92;7.07;;;;;;;11.37;100.00;98209.47;5032223;28;20051;-62
2024/04/05 07:21:26;;;;;;;25.38;4.80;;;;;;;11.42;100.00;98214.56;5065503;28;20048;-62
2024/04/05 07:23:54;;;;;;;35.55;6.30;;;;;;;11.45;100.00;98222.06;5057525;28;20063;-63
2024/04/05 07:26:21;;;;;;;35.58;6.07;;;;;;;11.50;100.00;98219.63;5063231;28;20060;-61
2024/04/05 07:28:47;;;;;;;36.10;8.25;;;;;;;11.56;100.00;98220.75;5061826;28;20041;-61
2024/04/05 07:31:14;;;;;;;24.25;5.35;;;;;;;11.61;100.00;98225.84;5064261;28;20055;-63
2024/04/05 07:33:40;;;;;;;22.52;4.82;;;;;;;11.66;100.00;98212.72;5047263;28;20047;-62
2024/04/05 07:36:08;;;;;;;29.45;5.88;;;;;;;11.68;100.00;98207.53;5060533;28;20131;-61
2024/04/05 07:38:34;;;;;;;30.55;6.25;;;;;;;11.73;100.00;98207.13;5048307;28;20537;-62
2024/04/05 07:41:05;;;;;;;28.30;6.53;;;;;;;11.76;100.00;98211.81;5050158;28;20075;-62
2024/04/05 07:43:31;;;;;;;34.13;7.13;;;;;;;11.78;100.00;98212.97;5058373;28;20048;-64
2024/04/05 07:45:58;;;;;;;23.13;4.70;;;;;;;11.81;100.00;98222.47;5060318;28;20509;-62
2024/04/05 07:48:25;;;;;;;31.48;6.28;;;;;;;11.82;100.00;98205.41;5059285;28;20061;-60
2024/04/05 07:50:53;;;;;;;32.22;7.93;;;;;;;11.82;100.00;98202.66;5053801;28;20049;-62
2024/04/05 07:53:19;;;;;;;24.67;5.65;;;;;;;11.85;100.00;98224.00;5064698;28;20047;-63
2024/04/05 07:55:45;;;;;;;16.20;4.53;;;;;;;11.87;100.00;98215.25;5066972;28;20041;-62
2024/04/05 07:58:11;;;;;;;31.55;6.40;;;;;;;11.91;100.00;98221.56;5050389;28;20079;-62
2024/04/05 08:00:38;;;;;;;27.83;5.30;;;;;;;11.93;100.00;98227.47;5064570;28;20053;-62
2024/04/05 08:03:06;;;;;;;34.95;6.00;;;;;;;11.97;100.00;98225.41;5070941;28;20051;-62
2024/04/05 08:05:35;;;;;;;25.25;8.05;;;;;;;11.99;100.00;98228.59;5070275;28;20052;-62
2024/04/05 08:08:02;;;;;;;35.30;5.95;;;;;;;12.01;100.00;98229.75;5057003;28;20056;-61
2024/04/05 08:10:30;;;;;;;27.35;4.97;;;;;;;12.01;100.00;98215.88;5062187;28;20040;-64
2024/04/05 08:12:57;;;;;;;24.65;6.93;;;;;;;12.02;100.00;98231.28;5061930;28;20048;-63
2024/04/05 08:15:26;;;;;;;27.48;5.47;;;;;;;12.04;100.00;98242.00;5069218;28;20044;-62
2024/04/05 08:17:52;;;;;;;25.85;5.82;;;;;;;12.04;100.00;98248.31;5068174;28;20516;-62
2024/04/05 08:20:19;;;;;;;30.23;6.38;;;;;;;12.06;100.00;98254.25;5056288;28;20059;-63
2024/04/05 08:22:45;;;;;;;21.00;4.10;;;;;;;12.05;100.00;98244.34;5048228;28;20052;-63
2024/04/05 08:25:12;;;;;;;24.63;6.50;;;;;;;12.08;100.00;98253.81;5059342;28;20083;-63
2024/04/05 08:27:38;;;;;;;22.80;4.60;;;;;;;12.12;100.00;98237.94;5069591;28;20048;-63
2024/04/05 08:30:05;;;;;;;20.13;3.88;;;;;;;12.14;100.00;98263.25;5072090;28;20054;-62
2024/04/05 08:32:34;;;;;;;25.00;6.13;;;;;;;12.15;100.00;98250.97;5070206;28;20032;-62
2024/04/05 08:35:00;;;;;;;22.23;4.55;;;;;;;12.18;100.00;98258.44;5059168;28;20056;-62
2024/04/05 08:37:27;;;;;;;23.90;5.10;;;;;;;12.24;100.00;98251.22;5070128;28;20036;-62
2024/04/05 08:39:53;;;;;;;19.45;5.00;;;;;;;12.27;100.00;98255.94;5069175;28;20051;-61
2024/04/05 08:42:19;;;;;;;19.40;3.85;;;;;;;12.41;100.00;98291.03;5069615;28;20056;-61
2024/04/05 08:44:52;;;;;;;15.20;4.75;;;;;;;12.52;100.00;98275.81;5069793;28;20063;-63
2024/04/05 08:47:20;;;;;;;16.38;3.30;;;;;;;12.55;100.00;98266.66;5069523;28;20751;-62
2024/04/05 08:49:47;;;;;;;22.95;4.55;;;;;;;12.64;100.00;98274.47;5061824;28;20075;-63
2024/04/05 08:52:13;;;;;;;22.65;5.15;;;;;;;12.84;100.00;98275.34;5058154;28;20036;-61
2024/04/05 08:54:40;;;;;;;21.65;5.10;;;;;;;13.18;100.00;98270.47;5064153;28;20505;-62
2024/04/05 08:57:08;;;;;;;21.08;4.55;;;;;;;13.73;100.00;98283.78;5058893;28;20064;-62
2024/04/05 08:59:35;;;;;;;16.92;4.72;;;;;;;14.30;100.00;98277.06;5065500;28;20520;-63
2024/04/05 09:02:03;;;;;;;32.22;5.13;;;;;;;15.01;100.00;98301.41;5069319;28;20051;-63
2024/04/05 09:04:30;;;;;;;24.27;5.20;;;;;;;15.35;99.14;98287.03;5067811;28;20082;-63
2024/04/05 09:06:57;;;;;;;28.70;6.45;;;;;;;15.44;98.03;98298.31;5070301;28;20048;-64
2024/04/05 09:09:28;;;;;;;32.08;6.88;;;;;;;16.19;97.85;98295.94;5068413;28;20056;-64
2024/04/05 09:12:09;;;;;;;26.45;6.30;;;;;;;16.97;95.45;98302.03;5067304;28;20493;-63
2024/04/05 09:14:38;;;;;;;27.48;7.45;;;;;;;17.66;93.15;98318.97;5067120;28;20051;-63
2024/04/05 09:17:33;;;;;;;22.08;4.80;;;;;;;18.14;90.39;98324.84;5056356;28;20063;-63
2024/04/05 09:20:06;;;;;;;23.25;6.35;;;;;;;18.07;88.36;98319.50;5079000;28;20094;-63
2024/04/05 09:22:33;;;;;;;28.23;6.72;;;;;;;17.71;87.98;98310.81;5067151;28;20043;-62
2024/04/05 09:25:03;;;;;;;30.33;4.80;;;;;;;18.04;87.30;98306.41;5069569;28;20048;-62
2024/04/05 09:27:30;;;;;;;18.20;4.90;;;;;;;18.61;86.19;98321.19;5068719;28;20134;-66
2024/04/05 09:30:03;;;;;;;25.17;5.03;;;;;;;19.00;83.81;98312.03;5069459;28;20032;-63
2024/04/05 09:32:29;;;;;;;28.15;6.00;;;;;;;19.21;80.43;98321.63;5065379;28;20040;-63
2024/04/05 09:34:57;;;;;;;21.25;5.63;;;;;;;18.56;78.04;98314.13;5078440;28;20097;-62
2024/04/05 09:37:26;;;;;;;22.98;5.22;;;;;;;17.59;77.94;98333.97;5068629;28;20048;-63
2024/04/05 09:39:53;;;;;;;21.08;4.65;;;;;;;16.76;78.88;98327.84;5068687;28;20048;-63
2024/04/05 09:42:23;;;;;;;20.90;3.83;;;;;;;16.53;81.36;98330.91;5054513;28;20048;-63
2024/04/05 09:44:58;;;;;;;15.75;5.00;;;;;;;16.39;81.12;98321.66;5066882;28;20943;-63
2024/04/05 09:47:27;;;;;;;19.88;5.50;;;;;;;16.02;80.09;98324.34;5082629;28;20064;-63
2024/04/05 09:49:54;;;;;;;20.70;4.03;;;;;;;15.56;80.33;98328.34;5068530;28;20051;-62
2024/04/05 09:52:24;;;;;;;18.92;6.05;;;;;;;15.25;81.17;98331.44;5067609;28;20043;-63
2024/04/05 09:54:57;;;;;;;19.55;4.40;;;;;;;15.27;82.13;98333.03;5067627;28;20048;-62
2024/04/05 09:57:23;;;;;;;26.27;6.35;;;;;;;15.24;81.25;98335.47;5069106;28;20064;-62
2024/04/05 09:59:54;;;;;;;27.55;4.45;;;;;;;15.14;81.52;98341.28;5068351;28;20047;-63
2024/04/05 10:02:21;;;;;;;30.38;6.57;;;;;;;15.23;81.80;98331.09;5065800;28;20053;-63
2024/04/05 10:04:48;;;;;;;23.58;5.38;;;;;;;15.64;80.30;98310.22;5059589;28;20067;-62
2024/04/05 10:07:14;;;;;;;17.45;4.50;;;;;;;15.47;79.35;98337.31;5063993;28;20048;-63
2024/04/05 10:09:41;;;;;;;23.40;6.75;;;;;;;15.11;79.48;98329.00;5064244;28;20048;-63
2024/04/05 10:12:12;;;;;;;25.13;5.32;;;;;;;14.77;80.31;98345.31;5052893;28;20049;-63
2024/04/05 10:14:39;;;;;;;20.85;5.30;;;;;;;14.55;80.66;98344.97;5062582;28;20047;-62
2024/04/05 10:17:13;;;;;;;18.38;4.68;;;;;;;14.45;81.42;98339.63;5063669;28;20056;-62
2024/04/05 10:19:42;;;;;;;18.35;5.38;;;;;;;14.52;81.58;98339.47;5060002;28;20119;-63
2024/04/05 10:22:10;;;;;;;23.08;6.15;;;;;;;14.69;80.95;98338.34;5054527;28;20053;-63
2024/04/05 10:24:37;;;;;;;16.75;5.93;;;;;;;14.78;80.67;98332.94;5064276;28;20067;-64
2024/04/05 10:27:04;;;;;;;21.55;5.38;;;;;;;14.91;79.92;98352.56;5060031;28;20053;-63
2024/04/05 10:29:31;;;;;;;25.55;3.72;;;;;;;14.79;79.73;98345.66;5057718;28;20048;-64
2024/04/05 10:32:01;;;;;;;23.42;4.05;;;;;;;14.68;80.31;98359.03;5056490;28;20052;-63
2024/04/05 10:34:28;;;;;;;21.92;4.78;;;;;;;14.64;80.16;98358.31;5062546;28;20044;-62
2024/04/05 10:36:56;;;;;;;13.95;3.65;;;;;;;14.43;80.39;98353.19;5063877;28;20047;-63
2024/04/05 10:39:22;;;;;;;24.70;4.55;;;;;;;14.25;80.87;98361.06;5064154;28;20048;-63
2024/04/05 10:41:49;;;;;;;23.58;5.65;;;;;;;14.11;81.30;98351.00;5063067;28;20049;-62
2024/04/05 10:44:18;;;;;;;22.10;4.68;;;;;;;14.01;81.53;98358.34;5063092;28;20414;-63
2024/04/05 10:46:47;;;;;;;17.60;3.75;;;;;;;13.89;81.72;98358.97;5062390;28;20532;-63
2024/04/05 10:49:15;;;;;;;14.38;3.65;;;;;;;13.77;82.10;98373.47;5064746;28;20857;-63
2024/04/05 10:51:42;;;;;;;16.27;4.10;;;;;;;13.72;82.09;98348.94;5059524;28;20048;-62
2024/04/05 10:54:16;;;;;;;15.57;4.22;;;;;;;13.71;82.11;98364.06;5059524;28;20041;-62
2024/04/05 10:56:43;;;;;;;17.77;4.28;;;;;;;13.74;82.26;98359.66;5066016;28;20049;-62
2024/04/05 10:59:17;;;;;;;16.20;3.72;;;;;;;13.87;82.29;98366.94;5062821;28;20047;-63
2024/04/05 11:01:44;;;;;;;26.40;4.93;;;;;;;14.02;82.08;98375.81;5057138;28;20498;-62
2024/04/05 11:04:11;;;;;;;18.90;4.30;;;;;;;14.08;81.75;98363.00;5061974;28;20036;-65
2024/04/05 11:06:38;;;;;;;15.50;4.45;;;;;;;14.18;81.51;98370.34;5059899;28;20052;-62
2024/04/05 11:09:06;;;;;;;19.17;4.38;;;;;;;14.23;80.96;98369.84;5064197;28;20052;-62
2024/04/05 11:11:33;;;;;;;24.60;3.83;;;;;;;14.22;81.14;98359.13;5062976;28;20051;-63
2024/04/05 11:14:05;;;;;;;21.23;4.57;;;;;;;14.16;81.47;98366.44;5063129;28;20055;-63
2024/04/05 11:16:33;;;;;;;19.50;3.85;;;;;;;14.06;81.68;98368.19;5063499;28;20049;-62
2024/04/05 11:19:00;;;;;;;23.35;4.28;;;;;;;14.01;81.87;98360.34;5063880;28;20417;-62
2024/04/05 11:21:27;;;;;;;19.10;3.60;;;;;;;13.98;81.80;98377.88;5064228;28;20049;-62